createdAt,value
2019-03-25T00:00:53.703Z,5.73
2019-03-25T00:03:23.596Z,9.93
2019-03-25T00:05:53.683Z,6.40
2019-03-25T00:08:23.583Z,11.37
2019-03-25T00:10:53.555Z,11.93
2019-03-25T00:13:24.543Z,9.80
2019-03-25T00:15:56.412Z,8.13
2019-03-25T00:18:27.323Z,8.70
2019-03-25T00:20:57.274Z,9.87
2019-03-25T00:23:27.421Z,3.93
2019-03-25T00:25:57.422Z,14.23
2019-03-25T00:28:27.389Z,9.73
2019-03-25T00:30:57.419Z,11.77
2019-03-25T00:33:27.442Z,9.40
2019-03-25T00:35:57.583Z,13.37
2019-03-25T00:38:27.539Z,4.83
2019-03-25T00:40:57.582Z,6.20
2019-03-25T00:43:27.696Z,11.83
2019-03-25T00:45:57.662Z,6.03
2019-03-25T00:48:27.755Z,10.57
2019-03-25T00:50:57.700Z,9.23
2019-03-25T00:53:27.756Z,11.67
2019-03-25T00:55:57.850Z,6.10
2019-03-25T00:58:27.951Z,9.10
2019-03-25T01:00:58.005Z,13.33
2019-03-25T01:03:27.981Z,10.17
2019-03-25T01:05:58.098Z,12.07
2019-03-25T01:08:28.218Z,11.53
2019-03-25T01:10:58.256Z,12.43
2019-03-25T01:13:28.383Z,14.67
2019-03-25T01:15:58.356Z,12.90
2019-03-25T01:18:28.287Z,11.83
2019-03-25T01:20:58.303Z,13.20
2019-03-25T01:23:28.186Z,12.50
2019-03-25T01:25:58.146Z,14.23
2019-03-25T01:28:28.102Z,10.40
2019-03-25T01:30:58.040Z,11.70
2019-03-25T01:33:27.964Z,10.87
2019-03-25T01:35:58.023Z,11.63
2019-03-25T01:38:28.045Z,9.00
2019-03-25T01:40:58.180Z,14.17
2019-03-25T01:43:28.166Z,10.23
2019-03-25T01:45:58.070Z,9.73
2019-03-25T01:48:28.122Z,9.37
2019-03-25T01:50:58.219Z,11.40
2019-03-25T01:53:28.216Z,12.13
2019-03-25T01:55:58.234Z,9.97
2019-03-25T01:58:28.224Z,11.50
2019-03-25T02:00:58.280Z,10.40
2019-03-25T02:03:28.199Z,10.73
2019-03-25T02:05:58.379Z,9.10
2019-03-25T02:08:28.383Z,9.90
2019-03-25T02:10:58.353Z,8.63
2019-03-25T02:13:28.381Z,13.33
2019-03-25T02:15:58.292Z,10.17
2019-03-25T02:18:28.295Z,9.53
2019-03-25T02:20:58.414Z,9.57
2019-03-25T02:23:28.290Z,9.17
2019-03-25T02:25:58.157Z,9.13
2019-03-25T02:28:28.239Z,13.43
2019-03-25T02:30:58.132Z,14.73
2019-03-25T02:33:28.048Z,13.60
2019-03-25T02:35:58.037Z,8.13
2019-03-25T02:38:27.888Z,14.60
2019-03-25T02:40:57.856Z,11.03
2019-03-25T02:43:27.812Z,13.10
2019-03-25T02:45:57.722Z,14.93
2019-03-25T02:48:27.662Z,11.47
2019-03-25T02:50:57.585Z,13.13
2019-03-25T02:53:27.600Z,16.13
2019-03-25T02:55:57.526Z,13.07
2019-03-25T02:58:27.449Z,14.80
2019-03-25T03:00:57.570Z,15.57
2019-03-25T03:03:27.477Z,9.47
2019-03-25T03:05:57.468Z,11.47
2019-03-25T03:08:27.411Z,14.97
2019-03-25T03:10:57.412Z,9.57
2019-03-25T03:13:27.300Z,13.13
2019-03-25T03:15:57.169Z,10.93
2019-03-25T03:18:27.184Z,18.43
2019-03-25T03:20:57.038Z,12.80
2019-03-25T03:23:27.847Z,12.33
2019-03-25T03:25:58.391Z,10.80
2019-03-25T03:28:28.616Z,14.17
2019-03-25T03:30:58.658Z,14.70
2019-03-25T03:33:28.793Z,9.17
2019-03-25T03:35:58.794Z,15.67
2019-03-25T03:38:28.793Z,12.03
2019-03-25T03:40:58.941Z,11.63
2019-03-25T03:43:29.099Z,13.20
2019-03-25T03:45:59.143Z,14.80
2019-03-25T03:48:29.177Z,15.77
2019-03-25T03:50:59.418Z,12.43
2019-03-25T03:53:29.536Z,13.83
2019-03-25T03:56:12.791Z,12.10
2019-03-25T03:58:33.963Z,11.60
2019-03-25T04:01:03.986Z,14.43
2019-03-25T04:03:34.046Z,12.23
2019-03-25T04:06:04.057Z,12.17
2019-03-25T04:08:34.087Z,11.77
2019-03-25T04:11:04.252Z,15.97
2019-03-25T04:13:34.349Z,23.13
2019-03-25T04:16:04.393Z,15.83
2019-03-25T04:18:34.460Z,21.13
2019-03-25T04:21:04.978Z,19.13
2019-03-25T04:23:35.068Z,15.30
2019-03-25T04:26:05.235Z,17.40
2019-03-25T04:28:35.707Z,20.43
2019-03-25T04:31:05.757Z,17.53
2019-03-25T04:33:35.772Z,21.07
2019-03-25T04:36:05.852Z,20.77
2019-03-25T04:38:35.924Z,25.27
2019-03-25T04:41:06.300Z,18.90
2019-03-25T04:43:37.437Z,26.40
2019-03-25T04:46:07.348Z,13.43
2019-03-25T04:48:37.273Z,17.37
2019-03-25T04:51:07.734Z,21.17
2019-03-25T04:53:37.914Z,23.57
2019-03-25T04:56:07.822Z,23.90
2019-03-25T04:58:38.834Z,18.70
2019-03-25T05:01:08.802Z,26.53
2019-03-25T05:03:38.747Z,21.53
2019-03-25T05:06:08.637Z,22.90
2019-03-25T05:08:38.536Z,20.60
2019-03-25T05:11:08.519Z,17.23
2019-03-25T05:13:38.399Z,15.93
2019-03-25T05:16:08.262Z,22.13
2019-03-25T05:18:38.164Z,21.33
2019-03-25T05:21:08.249Z,19.17
2019-03-25T05:23:38.181Z,26.00
2019-03-25T05:26:08.158Z,20.37
2019-03-25T05:28:38.082Z,23.20
2019-03-25T05:31:07.944Z,22.27
2019-03-25T05:33:37.899Z,21.53
2019-03-25T05:36:08.935Z,20.33
2019-03-25T05:38:38.843Z,19.37
2019-03-25T05:41:08.769Z,21.90
2019-03-25T05:43:38.729Z,18.00
2019-03-25T05:46:08.656Z,21.13
2019-03-25T05:48:38.546Z,22.00
2019-03-25T05:51:08.633Z,18.00
2019-03-25T05:53:41.766Z,30.20
2019-03-25T05:56:11.714Z,16.87
2019-03-25T05:58:41.785Z,22.37
2019-03-25T06:01:11.826Z,20.67
2019-03-25T06:03:41.746Z,21.37
2019-03-25T06:06:11.744Z,24.70
2019-03-25T06:08:41.678Z,19.23
2019-03-25T06:11:11.595Z,20.33
2019-03-25T06:13:41.586Z,18.17
2019-03-25T06:16:11.602Z,23.23
2019-03-25T06:18:44.499Z,22.33
2019-03-25T06:21:14.476Z,25.13
2019-03-25T06:23:44.501Z,29.03
2019-03-25T06:26:15.343Z,26.67
2019-03-25T06:28:45.326Z,25.23
2019-03-25T06:31:15.289Z,23.87
2019-03-25T06:33:45.298Z,23.83
2019-03-25T06:36:15.307Z,22.57
2019-03-25T06:38:45.318Z,21.37
2019-03-25T06:41:15.321Z,22.97
2019-03-25T06:43:45.379Z,25.83
2019-03-25T06:46:15.351Z,22.87
2019-03-25T06:48:45.423Z,20.97
2019-03-25T06:51:15.439Z,19.30
2019-03-25T06:53:45.401Z,24.00
2019-03-25T06:56:15.450Z,20.73
2019-03-25T06:58:45.409Z,23.17
2019-03-25T07:01:15.459Z,22.07
2019-03-25T07:03:45.463Z,24.47
2019-03-25T07:06:15.339Z,23.10
2019-03-25T07:08:45.249Z,20.37
2019-03-25T07:11:15.163Z,21.53
2019-03-25T07:13:45.085Z,28.17
2019-03-25T07:16:14.988Z,22.90
2019-03-25T07:18:44.960Z,27.03
2019-03-25T07:21:14.907Z,27.93
2019-03-25T07:23:44.809Z,24.90
2019-03-25T07:26:14.751Z,22.90
2019-03-25T07:28:44.656Z,19.53
2019-03-25T07:31:14.648Z,30.40
2019-03-25T07:33:45.561Z,23.47
2019-03-25T07:36:15.430Z,20.87
2019-03-25T07:38:45.313Z,23.97
2019-03-25T07:41:17.069Z,23.87
2019-03-25T07:43:46.783Z,22.27
2019-03-25T07:46:16.666Z,20.60
2019-03-25T07:48:46.550Z,29.20
2019-03-25T07:51:16.475Z,24.77
2019-03-25T07:53:46.361Z,20.93
2019-03-25T07:56:16.243Z,28.17
2019-03-25T07:58:46.160Z,22.57
2019-03-25T08:01:16.052Z,22.23
2019-03-25T08:03:45.962Z,32.93
2019-03-25T08:06:15.838Z,25.63
2019-03-25T08:08:45.715Z,29.63
2019-03-25T08:11:15.700Z,29.50
2019-03-25T08:13:45.645Z,17.93
2019-03-25T08:16:15.731Z,20.40
2019-03-25T08:18:45.681Z,28.83
2019-03-25T08:21:15.653Z,22.80
2019-03-25T08:23:45.575Z,25.40
2019-03-25T08:26:18.343Z,22.47
2019-03-25T08:28:48.301Z,22.07
2019-03-25T08:31:18.270Z,24.00
2019-03-25T08:33:48.295Z,27.10
2019-03-25T08:36:18.167Z,25.07
2019-03-25T08:38:49.069Z,23.43
2019-03-25T08:41:20.163Z,30.97
2019-03-25T08:43:50.550Z,25.40
2019-03-25T08:46:20.576Z,22.93
2019-03-25T08:48:50.619Z,20.20
2019-03-25T08:51:20.642Z,21.83
2019-03-25T08:53:50.620Z,26.93
2019-03-25T08:56:20.739Z,27.83
2019-03-25T08:58:50.683Z,29.53
2019-03-25T09:01:21.119Z,22.63
2019-03-25T09:03:51.092Z,31.90
2019-03-25T09:06:21.132Z,30.60
2019-03-25T09:08:51.265Z,24.07
2019-03-25T09:11:22.152Z,33.57
2019-03-25T09:13:52.189Z,18.23
2019-03-25T09:16:22.137Z,20.33
2019-03-25T09:18:52.145Z,23.17
2019-03-25T09:21:22.148Z,21.53
2019-03-25T09:23:52.217Z,20.93
2019-03-25T09:26:22.248Z,17.53
2019-03-25T09:28:52.202Z,22.53
2019-03-25T09:31:22.241Z,23.13
2019-03-25T09:33:52.387Z,26.53
2019-03-25T09:36:22.758Z,19.03
2019-03-25T09:38:53.594Z,17.03
2019-03-25T09:41:23.613Z,21.97
2019-03-25T09:43:53.553Z,21.13
2019-03-25T09:46:23.509Z,18.17
2019-03-25T09:48:53.390Z,21.63
2019-03-25T09:51:23.299Z,23.53
2019-03-25T09:53:53.193Z,21.13
2019-03-25T09:56:23.198Z,23.50
2019-03-25T09:58:53.064Z,18.47
2019-03-25T10:01:22.991Z,14.63
2019-03-25T10:03:52.869Z,19.93
2019-03-25T10:06:22.769Z,24.47
2019-03-25T10:08:52.693Z,22.87
2019-03-25T10:11:22.573Z,22.90
2019-03-25T10:13:52.478Z,21.07
2019-03-25T10:16:22.370Z,22.67
2019-03-25T10:18:52.301Z,20.50
2019-03-25T10:21:22.201Z,16.97
2019-03-25T10:23:52.213Z,22.70
2019-03-25T10:26:22.236Z,23.97
2019-03-25T10:28:52.105Z,20.70
2019-03-25T10:31:22.028Z,21.60
2019-03-25T10:33:51.943Z,18.00
2019-03-25T10:36:21.837Z,23.50
2019-03-25T10:38:51.769Z,22.57
2019-03-25T10:41:21.666Z,18.37
2019-03-25T10:43:51.667Z,21.80
2019-03-25T10:46:21.534Z,16.27
2019-03-25T10:48:51.401Z,14.27
2019-03-25T10:51:21.304Z,18.83
2019-03-25T10:53:52.335Z,18.07
2019-03-25T10:56:22.209Z,17.33
2019-03-25T10:58:58.005Z,11.43
2019-03-25T11:01:23.669Z,15.43
2019-03-25T11:03:53.593Z,11.10
2019-03-25T11:06:23.526Z,14.30
2019-03-25T11:08:53.528Z,16.37
2019-03-25T11:11:23.438Z,16.97
2019-03-25T11:13:53.340Z,12.93
2019-03-25T11:16:23.280Z,19.00
2019-03-25T11:18:53.182Z,14.63
2019-03-25T11:21:23.062Z,13.87
2019-03-25T11:23:53.993Z,16.50
2019-03-25T11:26:24.962Z,16.70
2019-03-25T11:28:54.941Z,12.40
2019-03-25T11:31:24.822Z,11.40
2019-03-25T11:33:54.748Z,11.03
2019-03-25T11:36:24.661Z,18.27
2019-03-25T11:38:55.698Z,14.90
2019-03-25T11:41:25.678Z,15.33
2019-03-25T11:43:55.681Z,13.97
2019-03-25T11:46:26.600Z,14.37
2019-03-25T11:48:56.617Z,12.27
2019-03-25T11:51:26.702Z,12.13
2019-03-25T11:53:58.608Z,16.47
2019-03-25T11:56:28.293Z,9.47
2019-03-25T11:58:58.303Z,15.20
2019-03-25T12:01:29.273Z,13.93
2019-03-25T12:03:59.146Z,14.40
2019-03-25T12:06:29.189Z,13.67
2019-03-25T12:08:59.230Z,12.10
2019-03-25T12:11:29.271Z,14.83
2019-03-25T12:13:59.275Z,19.17
2019-03-25T12:16:31.492Z,13.97
2019-03-25T12:19:01.569Z,12.63
2019-03-25T12:21:31.503Z,11.37
2019-03-25T12:24:01.400Z,14.90
2019-03-25T12:26:31.289Z,8.80
2019-03-25T12:29:02.291Z,11.47
2019-03-25T12:31:32.192Z,11.83
2019-03-25T12:34:02.207Z,9.90
2019-03-25T12:36:32.177Z,7.57
2019-03-25T12:39:02.074Z,11.03
2019-03-25T12:41:32.085Z,8.93
2019-03-25T12:44:01.971Z,10.73
2019-03-25T12:46:32.926Z,9.50
2019-03-25T12:49:02.798Z,10.13
2019-03-25T12:51:33.722Z,11.33
2019-03-25T12:54:03.598Z,8.77
2019-03-25T12:56:33.511Z,16.10
2019-03-25T12:59:03.377Z,11.10
2019-03-25T13:01:33.295Z,7.17
2019-03-25T13:04:03.231Z,12.83
2019-03-25T13:06:33.124Z,10.27
2019-03-25T13:09:03.013Z,10.63
2019-03-25T13:11:34.095Z,9.53
2019-03-25T13:14:04.219Z,9.33
2019-03-25T13:16:34.521Z,11.13
2019-03-25T13:19:04.745Z,6.83
2019-03-25T13:21:34.876Z,11.13
2019-03-25T13:24:04.912Z,12.70
2019-03-25T13:26:35.072Z,10.50
2019-03-25T13:29:04.995Z,8.40
2019-03-25T13:31:34.951Z,16.77
2019-03-25T13:34:04.938Z,11.70
2019-03-25T13:36:34.966Z,14.70
2019-03-25T13:39:06.735Z,11.27
2019-03-25T13:41:36.666Z,9.17
2019-03-25T13:44:06.538Z,8.47
2019-03-25T13:46:36.701Z,8.23
2019-03-25T13:49:06.654Z,8.73
2019-03-25T13:51:36.603Z,10.60
2019-03-25T13:54:07.054Z,4.20
2019-03-25T13:56:37.283Z,8.87
2019-03-25T13:59:07.261Z,4.73
2019-03-25T14:01:37.242Z,4.03
2019-03-25T14:04:07.233Z,3.53
2019-03-25T14:06:38.323Z,7.53
2019-03-25T14:09:08.669Z,5.53
2019-03-25T14:11:38.752Z,6.90
2019-03-25T14:14:08.941Z,3.93
2019-03-25T14:16:39.156Z,4.67
2019-03-25T14:19:09.036Z,4.00
2019-03-25T14:21:38.936Z,7.37
2019-03-25T14:24:08.940Z,5.83
2019-03-25T14:26:39.915Z,3.07
2019-03-25T14:29:09.916Z,11.73
2019-03-25T14:31:39.936Z,5.30
2019-03-25T14:34:09.837Z,7.43
2019-03-25T14:36:39.711Z,8.43
2019-03-25T14:39:09.672Z,6.30
2019-03-25T14:41:39.610Z,4.63
2019-03-25T14:44:09.634Z,3.47
2019-03-25T14:46:39.672Z,5.47
2019-03-25T14:49:10.495Z,3.77
2019-03-25T14:51:40.486Z,3.13
2019-03-25T14:54:10.397Z,3.37
2019-03-25T14:56:40.315Z,5.83
2019-03-25T14:59:10.187Z,3.60
2019-03-25T15:01:40.072Z,3.37
2019-03-25T15:04:10.028Z,1.93
2019-03-25T15:06:39.939Z,2.37
2019-03-25T15:09:10.350Z,3.07
2019-03-25T15:11:40.402Z,3.53
2019-03-25T15:14:10.342Z,4.80
2019-03-25T15:16:40.253Z,6.07
2019-03-25T15:19:10.255Z,4.47
2019-03-25T15:21:40.257Z,2.83
2019-03-25T15:24:10.166Z,4.17
2019-03-25T15:26:40.100Z,2.20
2019-03-25T15:29:09.947Z,7.50
2019-03-25T15:31:39.951Z,1.60
2019-03-25T15:34:09.897Z,6.77
2019-03-25T15:36:39.776Z,4.70
2019-03-25T15:39:09.653Z,5.30
2019-03-25T15:41:39.578Z,9.43
2019-03-25T15:44:09.483Z,4.10
2019-03-25T15:46:39.407Z,5.97
2019-03-25T15:49:09.293Z,5.20
2019-03-25T15:51:39.436Z,5.07
2019-03-25T15:54:10.190Z,6.47
2019-03-25T15:56:44.171Z,6.00
2019-03-25T15:59:14.226Z,8.10
2019-03-25T16:01:44.303Z,5.23
2019-03-25T16:04:14.236Z,4.63
2019-03-25T16:06:44.368Z,2.03
2019-03-25T16:09:14.450Z,6.00
2019-03-25T16:11:44.427Z,7.87
2019-03-25T16:14:14.336Z,3.17
2019-03-25T16:16:44.361Z,5.23
2019-03-25T16:19:14.336Z,11.17
2019-03-25T16:21:44.404Z,3.73
2019-03-25T16:24:14.403Z,4.57
2019-03-25T16:26:44.298Z,7.90
2019-03-25T16:29:14.691Z,3.07
2019-03-25T16:31:44.689Z,6.17
2019-03-25T16:34:14.665Z,6.70
2019-03-25T16:36:44.667Z,5.57
2019-03-25T16:39:14.756Z,7.70
2019-03-25T16:41:44.818Z,6.10
2019-03-25T16:44:14.954Z,2.83
2019-03-25T16:46:45.046Z,3.13
2019-03-25T16:49:15.066Z,4.53
2019-03-25T16:51:45.105Z,8.33
2019-03-25T16:54:14.990Z,2.13
2019-03-25T16:56:45.009Z,2.83
2019-03-25T16:59:14.973Z,3.40
2019-03-25T17:01:45.021Z,3.67
2019-03-25T17:04:15.079Z,5.27
2019-03-25T17:06:45.275Z,2.47
2019-03-25T17:09:15.284Z,3.67
2019-03-25T17:11:45.328Z,3.07
2019-03-25T17:14:15.322Z,3.50
2019-03-25T17:16:45.385Z,4.03
2019-03-25T17:19:15.428Z,3.40
2019-03-25T17:21:57.381Z,2.07
2019-03-25T17:24:17.987Z,3.80
2019-03-25T17:27:10.337Z,9.50
2019-03-25T17:29:40.272Z,17.00
2019-03-25T17:32:10.266Z,6.37
2019-03-25T17:34:40.218Z,3.40
2019-03-25T17:37:10.342Z,3.33
2019-03-25T17:39:40.353Z,2.63
2019-03-25T17:42:10.372Z,2.33
2019-03-25T17:44:40.419Z,3.20
2019-03-25T17:47:10.471Z,4.83
2019-03-25T17:49:40.456Z,7.83
2019-03-25T17:52:10.523Z,4.23
2019-03-25T17:54:40.547Z,4.23
2019-03-25T17:57:11.542Z,4.83
2019-03-25T17:59:41.471Z,6.67
2019-03-25T18:02:11.424Z,5.93
2019-03-25T18:04:41.481Z,7.30
2019-03-25T18:07:11.457Z,11.37
2019-03-25T18:09:41.467Z,7.30
2019-03-25T18:12:11.622Z,5.53
2019-03-25T18:14:41.517Z,6.10
2019-03-25T18:17:11.503Z,3.13
2019-03-25T18:19:41.538Z,8.33
2019-03-25T18:22:11.694Z,11.33
2019-03-25T18:24:41.572Z,3.30
2019-03-25T18:27:11.616Z,5.67
2019-03-25T18:29:41.553Z,5.77
2019-03-25T18:32:11.486Z,5.13
2019-03-25T18:34:41.430Z,8.70
2019-03-25T18:37:11.450Z,7.90
2019-03-25T18:39:41.494Z,5.97
2019-03-25T18:42:11.451Z,7.13
2019-03-25T18:44:41.513Z,10.17
2019-03-25T18:47:11.397Z,7.70
2019-03-25T18:49:41.433Z,12.17
2019-03-25T18:52:11.617Z,4.60
2019-03-25T18:54:41.692Z,4.57
2019-03-25T19:10:03.902Z,6.77
2019-03-25T19:12:33.925Z,9.80
2019-03-25T19:15:05.064Z,7.90
2019-03-25T19:17:35.085Z,5.07
2019-03-25T19:20:06.768Z,13.53
2019-03-25T19:22:36.838Z,9.63
2019-03-25T19:25:07.048Z,5.10
2019-03-25T19:27:37.215Z,6.80
2019-03-25T19:30:09.460Z,7.80
2019-03-25T19:32:39.346Z,7.27
2019-03-25T19:35:09.741Z,7.67
2019-03-25T19:37:39.673Z,5.93
2019-03-25T19:40:11.030Z,5.03
2019-03-25T19:42:41.144Z,3.57
2019-03-25T19:45:11.439Z,8.47
2019-03-25T19:47:41.406Z,5.03
2019-03-25T19:50:12.033Z,5.53
2019-03-25T19:52:42.038Z,4.97
2019-03-25T19:55:12.527Z,8.40
2019-03-25T19:57:42.701Z,9.93
2019-03-25T20:00:13.587Z,11.13
2019-03-25T20:02:43.645Z,8.23
2019-03-25T20:05:13.579Z,8.33
2019-03-25T20:07:43.580Z,8.70
2019-03-25T20:10:19.816Z,5.37
2019-03-25T20:12:49.835Z,4.57
2019-03-25T20:15:19.904Z,4.57
2019-03-25T20:17:50.165Z,3.93
2019-03-25T20:20:20.239Z,5.77
2019-03-25T20:22:50.159Z,4.83
2019-03-25T20:25:20.115Z,3.90
2019-03-25T20:27:50.232Z,3.67
2019-03-25T20:30:20.505Z,6.77
2019-03-25T20:32:50.658Z,3.23
2019-03-25T20:35:20.808Z,2.50
2019-03-25T20:37:52.001Z,7.00
2019-03-25T20:40:23.112Z,3.57
2019-03-25T20:42:53.133Z,4.73
2019-03-25T20:45:23.266Z,4.10
2019-03-25T20:47:53.514Z,6.20
2019-03-25T20:50:23.549Z,5.27
2019-03-25T20:52:53.660Z,2.03
2019-03-25T20:55:23.638Z,4.60
2019-03-25T20:57:53.691Z,1.83
2019-03-25T21:00:32.290Z,6.30
2019-03-25T21:03:02.641Z,3.30
2019-03-25T21:05:32.693Z,7.47
2019-03-25T21:08:02.756Z,6.83
2019-03-25T21:10:32.837Z,9.63
2019-03-25T21:13:03.018Z,4.53
2019-03-25T21:15:32.933Z,9.47
2019-03-25T21:18:03.091Z,4.23
2019-03-25T21:20:33.094Z,5.13
2019-03-25T21:23:03.037Z,3.73
2019-03-25T21:25:33.049Z,6.57
2019-03-25T21:28:03.026Z,1.90
2019-03-25T21:30:33.143Z,8.10
2019-03-25T21:33:03.269Z,8.63
2019-03-25T21:35:33.357Z,4.50
2019-03-25T21:38:03.401Z,3.43
2019-03-25T21:40:33.481Z,5.63
2019-03-25T21:43:03.557Z,6.33
2019-03-25T21:45:33.591Z,1.87
2019-03-25T21:48:03.887Z,10.20
2019-03-25T21:50:33.946Z,5.43
2019-03-25T21:53:03.974Z,7.07
2019-03-25T21:55:33.999Z,8.53
2019-03-25T21:58:04.169Z,6.20
2019-03-25T22:00:34.383Z,11.90
2019-03-25T22:03:11.380Z,4.37
2019-03-25T22:05:36.173Z,6.97
2019-03-25T22:08:06.247Z,8.30
2019-03-25T22:10:36.356Z,5.00
2019-03-25T22:13:06.479Z,2.33
2019-03-25T22:15:36.473Z,5.47
2019-03-25T22:18:06.486Z,3.57
2019-03-25T22:20:37.535Z,6.27
2019-03-25T22:23:07.445Z,6.83
2019-03-25T22:25:37.469Z,8.07
2019-03-25T22:28:07.474Z,2.17
2019-03-25T22:30:37.574Z,3.70
2019-03-25T22:33:07.629Z,5.67
2019-03-25T22:35:37.495Z,4.83
2019-03-25T22:38:07.572Z,3.47
2019-03-25T22:40:37.688Z,5.57
2019-03-25T22:43:07.794Z,4.47
2019-03-25T22:45:37.786Z,9.73
2019-03-25T22:48:07.791Z,5.43
2019-03-25T22:50:37.849Z,7.33
2019-03-25T22:53:07.830Z,5.50
2019-03-25T22:55:37.747Z,2.60
2019-03-25T22:58:07.768Z,4.90
2019-03-25T23:00:45.412Z,5.97
2019-03-25T23:03:15.555Z,3.50
2019-03-25T23:05:45.505Z,3.23
2019-03-25T23:08:15.689Z,3.63
2019-03-25T23:10:45.626Z,4.90
2019-03-25T23:13:15.645Z,6.27
2019-03-25T23:15:45.727Z,4.67
2019-03-25T23:18:15.802Z,4.43
2019-03-25T23:20:45.836Z,7.20
2019-03-25T23:23:15.803Z,6.93
2019-03-25T23:25:45.715Z,2.67
2019-03-25T23:28:15.798Z,5.37
2019-03-25T23:30:45.811Z,6.27
2019-03-25T23:33:15.860Z,2.63
2019-03-25T23:35:45.987Z,4.17
2019-03-25T23:38:16.000Z,6.80
2019-03-25T23:40:46.009Z,4.30
2019-03-25T23:43:16.027Z,4.13
2019-03-25T23:45:46.059Z,7.63
2019-03-25T23:48:16.069Z,3.90
2019-03-25T23:50:45.909Z,1.80
2019-03-25T23:53:15.923Z,2.77
2019-03-25T23:55:45.845Z,4.93
2019-03-25T23:58:15.843Z,4.20
